VEAZ weather

Tuirial Airfield
Aizawl, Mizoram, India

Public forecast

Using degrees Celsius for public forecast. Weather courtesy of forecast.io.

Closest aviation weather report (METAR) to Tuirial Airfield

Report is more than 6 hours old.

Closest report is Lengpui Airport, 11.6 nm (21.5 km) WNW. Retrieved 2020/04/06 11:00 UTC (13 hours ago):

VELP 061100Z 20006KT 4000 HZ NSC 31/14 Q1009 NOSIG

Closest aviation forecast (TAF) to Tuirial Airfield

Forecast is more than 6 hours old.

Closest forecast is Silchar Airport, 70.9 nm (131.3 km) N. Retrieved 2020/04/06 12:30 UTC (12 hours ago):

TAF VEKU 060930Z 0612/0624 24007KT 6000 SCT030 SCT200